Portada
METAR-TAF:

METAR-TAF

Aeroports :

Foz do Iguaçu, Paranà, Brasil

latitud: 25-31S, longitud: 054-35W, altitud: 180 m

Observació

L'informe es va fer fa 34 minuts, a les 20:00 UTC
Vent 3 kt del Nord/Nord-Est
Temperatura 27°C
Humitat 58%
Pressió 1016 hPa
Visibilitat 10 km o més
sense núvols per sota de 1500 mi sense presència de cumulonimbus.

METAR: SBFI 152000Z 03003KT CAVOK 27/18 Q1016

Hora: 17:34 (20:34 UTC)

Pronòstic

L'informe es va fer fa 5 hores i 4 minuts, a les 15:30 UTC
Pronòstic vàlid del 15 a les 18 UTC al 16 a les 18 UTC
Vent 9 kt del Nord/Nord-Est
Visibilitat 10 km o més
sense núvols per sota de 1500 mi sense presència de cumulonimbus.
Evolucionant progressivament
l' 15 a les 22 UTC al 15 a les 24 UTC
Vent 5 kt del Est/Nord-Est

TAF: SBFI 151530Z 1518/1618 03009KT CAVOK TX30/1518Z TN18/1608Z BECMG 1522/1524 07005KT RMK PDW

Observacions i pronòstics meteorològics de més de 4000 aeroports (METAR i TAF).

Les estacions disponibles són els punts grocs i vermells al mapa.

Posi el ratolí al punt desitjat per veure el nom de l'estació.

Feu clic per veure les observacions i els pronòstics meteorològics.

Per canviar el mapa: feu clic els botons verds amb una creu de color negre per apropar; al botó verd amb un guió per allunyar la imatge; o en les fletxes verdes per a mapes adjacents.


METAR-TAF: